Time;durP1;ratioP1;P1;durP2;ratioP2;P2;SDS_P1;SDS_P2;PMS_P1;PMS_P2;Temp;Humidity;BMP_temperature;BMP_pressure;BME280_temperature;BME280_humidity;BME280_pressure;Samples;Min_cycle;Max_cycle;Signal;HPM_P1;HPM_P2
2023/03/27 00:00:49;;;;;;;165.80;121.00;;;;;;;8.19;67.76;98958.45;109669;1266;24311;-77
2023/03/27 00:03:26;;;;;;;158.20;117.20;;;;;;;8.19;67.85;98956.01;110392;1267;21980;-78
2023/03/27 00:06:15;;;;;;;168.40;121.40;;;;;;;8.18;67.82;98954.83;109658;1270;24294;-77
2023/03/27 00:08:51;;;;;;;157.60;115.90;;;;;;;8.16;67.87;98952.30;109616;1266;22738;-78
2023/03/27 00:11:40;;;;;;;159.30;114.40;;;;;;;8.14;67.85;98952.77;110342;1265;21979;-78
2023/03/27 00:14:15;;;;;;;155.00;114.60;;;;;;;8.13;67.97;98948.33;110454;1260;23690;-78
2023/03/27 00:17:04;;;;;;;146.10;109.80;;;;;;;8.12;67.89;98948.73;110659;1260;21988;-79
2023/03/27 00:19:37;;;;;;;85.80;61.30;;;;;;;8.10;67.98;98948.66;110565;1260;22021;-78
2023/03/27 00:22:15;;;;;;;54.20;39.00;;;;;;;8.08;67.93;98948.57;110526;1260;21962;-78
2023/03/27 00:25:04;;;;;;;30.20;25.40;;;;;;;8.05;67.64;98950.45;110860;1255;21977;-78
2023/03/27 00:27:42;;;;;;;27.40;21.70;;;;;;;7.99;67.30;98955.27;110728;1244;21959;-78
2023/03/27 00:30:34;;;;;;;26.30;20.60;;;;;;;7.90;67.14;98961.44;111121;1255;23386;-78
2023/03/27 00:33:08;;;;;;;28.80;20.50;;;;;;;7.85;66.93;98967.55;110775;1256;21958;-79
2023/03/27 00:35:51;;;;;;;26.20;17.80;;;;;;;7.82;66.68;98974.98;110183;1263;21971;-78
2023/03/27 00:38:34;;;;;;;22.20;16.80;;;;;;;7.77;66.36;98977.27;110678;1262;21968;-78
2023/03/27 00:41:04;;;;;;;21.70;16.00;;;;;;;7.74;65.97;98982.44;110548;1262;23621;-80
2023/03/27 00:43:41;;;;;;;25.60;19.70;;;;;;;7.69;65.75;98983.20;110277;1262;21984;-78
2023/03/27 00:46:41;;;;;;;25.00;19.40;;;;;;;7.65;65.63;98983.77;110197;1261;22025;-78
2023/03/27 00:49:15;;;;;;;28.80;21.40;;;;;;;7.56;65.49;98982.64;110402;1261;21946;-78
2023/03/27 00:51:51;;;;;;;24.80;20.60;;;;;;;7.50;65.30;98976.14;110539;1258;23685;-79
2023/03/27 00:54:33;;;;;;;24.90;20.00;;;;;;;7.43;65.26;98975.94;110670;1257;21958;-78
2023/03/27 00:57:15;;;;;;;26.60;19.40;;;;;;;7.39;65.21;98974.21;110919;1256;21988;-78
2023/03/27 00:59:52;;;;;;;25.80;18.10;;;;;;;7.36;65.08;98977.51;110737;1260;21994;-79
2023/03/27 01:02:22;;;;;;;24.20;18.50;;;;;;;7.26;64.96;98972.40;109953;1266;23622;-78
2023/03/27 01:04:56;;;;;;;24.10;18.30;;;;;;;7.18;65.08;98966.89;109720;1270;21980;-79
2023/03/27 01:07:29;;;;;;;24.40;18.10;;;;;;;7.12;65.07;98967.16;109387;1271;21975;-79
2023/03/27 01:10:00;;;;;;;22.40;18.20;;;;;;;7.05;64.99;98962.31;108991;1276;23774;-79
2023/03/27 01:13:44;;;;;;;24.20;16.30;;;;;;;6.95;64.86;98962.75;108792;1276;21986;-78
2023/03/27 01:16:46;;;;;;;24.90;19.90;;;;;;;6.80;65.04;98964.61;108558;1283;21881;-79
2023/03/27 01:20:32;;;;;;;31.20;28.00;;;;;;;6.71;65.33;98965.92;108608;1283;22001;-77
2023/03/27 01:23:35;;;;;;;33.70;28.60;;;;;;;6.56;65.42;98974.84;108582;1282;22017;-77
2023/03/27 01:26:56;;;;;;;24.90;20.30;;;;;;;6.44;65.74;98976.55;108882;1279;22157;-77
2023/03/27 01:29:55;;;;;;;30.70;27.10;;;;;;;6.38;65.73;98972.14;109150;1263;23765;-79
2023/03/27 01:33:07;;;;;;;31.90;28.70;;;;;;;6.34;65.91;98972.86;108962;1278;23759;-78
2023/03/27 01:36:38;;;;;;;45.50;41.30;;;;;;;6.29;66.10;98979.62;108934;1280;23602;-77
2023/03/27 01:39:28;;;;;;;48.00;43.80;;;;;;;6.19;65.98;98982.27;108154;1291;23789;-77
2023/03/27 01:42:27;;;;;;;54.50;49.90;;;;;;;6.11;66.38;98985.02;107644;1295;22215;-76
2023/03/27 01:45:28;;;;;;;47.50;43.10;;;;;;;6.17;66.38;98993.57;107831;1289;544388;-77
2023/03/27 01:48:04;;;;;;;48.80;44.40;;;;;;;6.04;66.36;98987.73;110433;1261;22839;-77
2023/03/27 01:50:54;;;;;;;42.40;38.50;;;;;;;5.96;66.42;98987.71;110224;1263;21965;-76
2023/03/27 01:53:38;;;;;;;30.30;27.50;;;;;;;5.91;66.82;98981.16;110510;1263;22262;-76
2023/03/27 01:56:36;;;;;;;21.70;16.90;;;;;;;5.88;67.02;98983.52;109954;1266;22472;-77
2023/03/27 01:59:29;;;;;;;19.80;14.60;;;;;;;5.84;67.12;98977.83;107953;1269;2077828;-77
2023/03/27 02:02:37;;;;;;;21.20;11.80;;;;;;;5.78;67.15;98977.17;109497;1269;22013;-77
2023/03/27 02:05:35;;;;;;;17.90;11.70;;;;;;;5.72;67.32;98977.93;108996;1276;21979;-77
2023/03/27 02:08:16;;;;;;;19.80;12.80;;;;;;;5.67;67.27;98977.27;109394;1272;21979;-77
2023/03/27 02:11:03;;;;;;;18.10;10.40;;;;;;;5.64;67.23;98977.91;109401;1273;21982;-77
2023/03/27 02:13:55;;;;;;;19.10;11.00;;;;;;;5.61;67.14;98974.24;109400;1273;23043;-77
2023/03/27 02:16:33;;;;;;;20.60;11.40;;;;;;;5.58;67.21;98972.45;109221;1273;21981;-76
2023/03/27 02:19:13;;;;;;;18.80;10.90;;;;;;;5.59;67.17;98972.91;109163;1273;22110;-75
2023/03/27 02:21:44;;;;;;;17.30;11.10;;;;;;;5.58;67.09;98976.23;109439;1268;21996;-77
2023/03/27 02:24:17;;;;;;;24.50;12.90;;;;;;;5.59;67.20;98976.20;109492;1264;21996;-76
2023/03/27 02:27:08;;;;;;;17.70;12.30;;;;;;;5.57;66.95;98973.84;109866;1268;22317;-76
2023/03/27 02:30:00;;;;;;;25.10;13.70;;;;;;;5.53;66.92;98974.03;109214;1274;23104;-76
2023/03/27 02:33:02;;;;;;;25.40;17.70;;;;;;;5.47;66.87;98978.23;109170;1271;23010;-76
2023/03/27 02:35:52;;;;;;;27.50;19.20;;;;;;;5.41;67.08;98986.38;108775;1266;22572;-77
2023/03/27 02:38:53;;;;;;;24.40;16.80;;;;;;;5.37;66.96;98994.66;109450;1271;23625;-76
2023/03/27 02:41:56;;;;;;;24.60;16.70;;;;;;;5.31;66.90;98999.02;109265;1265;21967;-76
2023/03/27 02:44:41;;;;;;;23.40;13.50;;;;;;;5.24;66.96;99007.39;109870;1269;22413;-78
2023/03/27 02:47:44;;;;;;;19.50;13.30;;;;;;;5.23;67.12;99010.89;109792;1267;23690;-77
2023/03/27 02:50:33;;;;;;;22.70;13.90;;;;;;;5.19;67.21;99015.50;109716;1266;22018;-76
2023/03/27 02:53:15;;;;;;;23.90;13.80;;;;;;;5.16;67.13;99014.94;109861;1260;23076;-77
2023/03/27 02:55:53;;;;;;;25.40;13.50;;;;;;;5.15;67.06;99017.38;110522;1261;21940;-76
2023/03/27 02:59:09;;;;;;;21.70;12.20;;;;;;;5.15;67.12;99017.55;109798;1266;22011;-75
2023/03/27 03:01:44;;;;;;;23.60;12.40;;;;;;;5.08;67.06;99021.41;109958;1267;23718;-76
2023/03/27 03:04:40;;;;;;;20.70;12.80;;;;;;;5.07;67.22;99024.77;109739;1267;21977;-77
2023/03/27 03:07:37;;;;;;;18.00;10.50;;;;;;;5.05;67.14;99026.88;109861;1267;21967;-76
2023/03/27 03:10:17;;;;;;;22.50;11.10;;;;;;;5.05;67.04;99024.63;109425;1273;21977;-77
2023/03/27 03:12:54;;;;;;;20.40;10.20;;;;;;;5.03;67.02;99027.64;109220;1273;23747;-77
2023/03/27 03:15:41;;;;;;;20.20;10.00;;;;;;;4.98;66.86;99035.92;109450;1273;21987;-76
2023/03/27 03:18:24;;;;;;;16.60;11.00;;;;;;;4.95;66.90;99041.56;110116;1267;21610;-77
2023/03/27 03:21:04;;;;;;;24.20;11.60;;;;;;;4.94;67.01;99046.05;109953;1261;21973;-77
2023/03/27 03:23:58;;;;;;;27.40;12.50;;;;;;;4.97;67.03;99046.98;110265;1261;21989;-79
2023/03/27 03:27:01;;;;;;;22.50;12.30;;;;;;;4.99;66.92;99050.38;110252;1266;21989;-78
2023/03/27 03:30:45;;;;;;;27.30;18.70;;;;;;;4.97;66.94;99061.66;110451;1263;21956;-78
2023/03/27 03:34:15;;;;;;;42.90;30.60;;;;;;;4.97;66.92;99071.64;109931;1268;22909;-77
2023/03/27 03:36:40;;;;;;;26.30;20.20;;;;;;;4.94;66.89;99074.37;110164;1268;21970;-79
2023/03/27 03:39:17;;;;;;;19.40;14.10;;;;;;;4.94;66.76;99081.25;109631;1268;22750;-80
2023/03/27 03:41:54;;;;;;;17.90;11.00;;;;;;;4.94;66.81;99085.88;109652;1268;23599;-80
2023/03/27 03:44:27;;;;;;;21.00;10.20;;;;;;;4.96;66.81;99089.09;110024;1265;21951;-78
2023/03/27 03:47:12;;;;;;;19.20;10.40;;;;;;;4.95;66.71;99095.00;110016;1259;22736;-77
2023/03/27 03:49:46;;;;;;;20.30;11.40;;;;;;;4.93;66.75;99100.58;110646;1259;22118;-78
2023/03/27 03:52:21;;;;;;;20.10;10.70;;;;;;;4.93;66.95;99107.83;110850;1254;21932;-79
2023/03/27 03:54:57;;;;;;;22.40;10.20;;;;;;;4.95;66.97;99111.90;110749;1260;21956;-77
2023/03/27 03:57:32;;;;;;;20.10;9.50;;;;;;;4.94;66.86;99111.91;110637;1260;21965;-79
2023/03/27 04:00:16;;;;;;;21.90;9.70;;;;;;;4.90;66.76;99117.76;110913;1260;23086;-80
2023/03/27 04:02:55;;;;;;;20.20;8.50;;;;;;;4.86;66.74;99121.84;110906;1260;22996;-77
2023/03/27 04:05:39;;;;;;;20.30;8.70;;;;;;;4.86;66.68;99124.63;110709;1260;22984;-79
2023/03/27 04:08:13;;;;;;;19.50;8.50;;;;;;;4.84;66.50;99127.94;110657;1260;22365;-78
2023/03/27 04:11:16;;;;;;;20.10;7.80;;;;;;;4.81;66.52;99131.84;110695;1260;21966;-77
2023/03/27 04:14:06;;;;;;;16.90;9.50;;;;;;;4.77;66.31;99131.80;110711;1260;23615;-79
2023/03/27 04:16:43;;;;;;;24.30;10.90;;;;;;;4.75;66.38;99133.08;110706;1260;21976;-77
2023/03/27 04:19:21;;;;;;;24.80;10.30;;;;;;;4.76;66.32;99135.30;110985;1255;22025;-78
2023/03/27 04:22:04;;;;;;;20.70;10.20;;;;;;;4.75;66.30;99135.51;111279;1255;21962;-77
2023/03/27 04:24:43;;;;;;;20.10;9.30;;;;;;;4.72;66.20;99137.13;110882;1255;24037;-80
2023/03/27 04:27:23;;;;;;;23.30;9.50;;;;;;;4.73;66.09;99134.02;110990;1255;22835;-77
2023/03/27 04:30:12;;;;;;;17.20;7.90;;;;;;;4.71;66.03;99135.80;110957;1255;24356;-78
2023/03/27 04:33:21;;;;;;;17.30;7.30;;;;;;;4.66;65.96;99137.67;111319;1255;21967;-77
2023/03/27 04:36:08;;;;;;;16.20;7.00;;;;;;;4.60;65.78;99142.01;111155;1253;23036;-79
2023/03/27 04:39:18;;;;;;;18.60;7.50;;;;;;;4.55;65.80;99144.60;110714;1261;21965;-76
2023/03/27 04:41:59;;;;;;;15.10;5.60;;;;;;;4.53;65.71;99150.16;110592;1261;22008;-79
2023/03/27 04:44:39;;;;;;;25.20;6.80;;;;;;;4.49;65.58;99156.50;110756;1257;21972;-75
2023/03/27 04:47:14;;;;;;;16.30;6.30;;;;;;;4.43;65.30;99162.70;110596;1251;22240;-75
2023/03/27 04:50:00;;;;;;;12.50;5.20;;;;;;;4.30;65.00;99167.09;110680;1261;23739;-76
2023/03/27 04:52:33;;;;;;;11.90;5.40;;;;;;;4.19;64.98;99169.50;110702;1261;21963;-76
2023/03/27 04:55:06;;;;;;;10.00;4.90;;;;;;;4.11;65.03;99167.15;110594;1261;21975;-76
2023/03/27 04:57:47;;;;;;;11.10;5.20;;;;;;;4.05;65.26;99168.17;110785;1255;21969;-76
2023/03/27 05:00:22;;;;;;;17.30;5.90;;;;;;;4.01;65.49;99167.10;111114;1255;23593;-78
2023/03/27 05:03:24;;;;;;;15.80;7.50;;;;;;;3.99;65.65;99173.70;110775;1254;22233;-77
2023/03/27 05:06:14;;;;;;;14.70;7.60;;;;;;;3.96;65.70;99179.83;111252;1254;21926;-78
2023/03/27 05:08:46;;;;;;;12.20;6.20;;;;;;;3.94;65.90;99186.92;110937;1254;21956;-78
2023/03/27 05:11:25;;;;;;;16.40;7.00;;;;;;;3.91;65.97;99193.05;110762;1257;22017;-78
2023/03/27 05:13:58;;;;;;;14.70;6.80;;;;;;;3.88;66.20;99194.67;110848;1260;23549;-78
2023/03/27 05:16:34;;;;;;;17.80;8.30;;;;;;;3.86;66.26;99200.06;110220;1264;22002;-78
2023/03/27 05:19:13;;;;;;;22.00;11.30;;;;;;;3.85;66.32;99203.02;110161;1264;23596;-78
2023/03/27 05:21:48;;;;;;;14.40;7.00;;;;;;;3.84;66.50;99205.27;110444;1264;22001;-79
2023/03/27 05:24:27;;;;;;;18.80;9.60;;;;;;;3.85;66.58;99207.67;110269;1264;23663;-78
2023/03/27 05:27:00;;;;;;;12.60;7.10;;;;;;;3.86;66.66;99207.31;110372;1264;23847;-79
2023/03/27 05:29:34;;;;;;;12.00;5.90;;;;;;;3.87;66.72;99206.93;110783;1258;21961;-79
2023/03/27 05:32:20;;;;;;;11.80;6.00;;;;;;;3.83;66.61;99209.61;110862;1259;23036;-78
2023/03/27 05:34:56;;;;;;;9.50;4.70;;;;;;;3.79;66.54;99209.88;111034;1255;21980;-78
2023/03/27 05:37:26;;;;;;;9.30;4.10;;;;;;;3.75;66.54;99209.49;111180;1255;22151;-79
2023/03/27 05:40:25;;;;;;;9.70;5.20;;;;;;;3.70;66.61;99219.45;111198;1255;22406;-78
2023/03/27 05:42:56;;;;;;;10.50;4.90;;;;;;;3.69;66.61;99218.27;111161;1255;21966;-78
2023/03/27 05:45:32;;;;;;;10.10;5.50;;;;;;;3.69;66.52;99226.34;110922;1255;21950;-80
2023/03/27 05:48:08;;;;;;;11.30;5.60;;;;;;;3.70;66.37;99227.01;111498;1255;21962;-79
2023/03/27 05:50:42;;;;;;;13.60;5.90;;;;;;;3.67;66.09;99233.29;111466;1255;22913;-78
2023/03/27 05:53:34;;;;;;;8.70;4.80;;;;;;;3.62;66.00;99232.73;110578;1259;21963;-80
2023/03/27 05:56:21;;;;;;;11.30;5.40;;;;;;;3.61;65.69;99237.78;110929;1260;23088;-78
2023/03/27 05:59:05;;;;;;;9.00;5.60;;;;;;;3.56;65.52;99235.67;110714;1260;23713;-78
2023/03/27 06:01:48;;;;;;;7.90;4.90;;;;;;;3.53;65.54;99233.68;109685;1267;23755;-78
2023/03/27 06:04:33;;;;;;;9.70;4.20;;;;;;;3.58;65.49;99235.80;109845;1267;22747;-78
2023/03/27 06:07:11;;;;;;;10.50;4.80;;;;;;;3.58;65.22;99237.84;110149;1267;23028;-79
2023/03/27 06:10:00;;;;;;;11.20;6.30;;;;;;;3.62;65.23;99239.63;109789;1265;23057;-79
2023/03/27 06:12:36;;;;;;;15.60;5.80;;;;;;;3.65;65.11;99246.42;110257;1262;23752;-80
2023/03/27 06:15:29;;;;;;;;;;;;;;;3.65;64.71;99253.98;110611;1262;23576;-79
2023/03/27 06:18:30;;;;;;;10.30;6.00;;;;;;;3.49;64.55;99264.05;110809;1262;22005;-79
2023/03/27 06:21:16;;;;;;;8.70;4.40;;;;;;;3.42;64.32;99267.67;110513;1261;21971;-78
2023/03/27 06:23:55;;;;;;;10.20;5.40;;;;;;;3.37;64.23;99273.33;110737;1261;23593;-78
2023/03/27 06:26:27;;;;;;;9.30;4.70;;;;;;;3.39;64.33;99281.00;110559;1261;22875;-78
2023/03/27 06:29:13;;;;;;;12.70;5.30;;;;;;;3.39;64.14;99282.21;110209;1264;21963;-80
2023/03/27 06:32:00;;;;;;;13.70;6.10;;;;;;;3.37;64.09;99286.20;110636;1264;21977;-79
2023/03/27 06:34:38;;;;;;;10.10;6.60;;;;;;;3.39;64.03;99290.98;110447;1265;23795;-80
2023/03/27 06:37:47;;;;;;;7.40;4.30;;;;;;;3.43;64.20;99296.88;110432;1264;22104;-79
2023/03/27 06:40:26;;;;;;;10.20;5.10;;;;;;;3.49;64.00;99303.27;110656;1259;23020;-78
2023/03/27 06:43:09;;;;;;;6.80;4.70;;;;;;;3.53;63.73;99306.11;110609;1259;21975;-78
2023/03/27 06:45:50;;;;;;;7.50;4.70;;;;;;;3.55;63.69;99312.94;110731;1259;23707;-81
2023/03/27 06:48:42;;;;;;;6.80;4.90;;;;;;;3.59;63.50;99316.27;110964;1255;21978;-80
2023/03/27 06:51:21;;;;;;;11.70;4.70;;;;;;;3.65;63.50;99320.06;111128;1255;22129;-79
2023/03/27 06:53:55;;;;;;;7.80;4.30;;;;;;;3.73;63.28;99323.13;110981;1256;22004;-79
2023/03/27 06:56:31;;;;;;;6.00;2.70;;;;;;;3.77;62.82;99326.13;111061;1255;21962;-77
2023/03/27 06:59:41;;;;;;;6.30;3.30;;;;;;;3.79;62.61;99330.39;111069;1255;21958;-78
2023/03/27 07:02:18;;;;;;;;;;;;;;;3.81;62.30;99337.02;111196;1255;21933;-79
2023/03/27 07:05:09;;;;;;;4.40;2.40;;;;;;;3.69;62.21;99341.80;111024;1255;21992;-80
2023/03/27 07:07:52;;;;;;;8.80;3.60;;;;;;;3.73;62.14;99342.24;111277;1255;21971;-79
2023/03/27 07:10:41;;;;;;;6.90;5.00;;;;;;;3.85;62.39;99346.57;111099;1255;21942;-79
2023/03/27 07:13:48;;;;;;;4.50;3.30;;;;;;;4.03;62.09;99357.61;110946;1255;23037;-78
2023/03/27 07:16:53;;;;;;;7.00;3.10;;;;;;;4.07;61.48;99360.28;110949;1255;21967;-79
2023/03/27 07:19:26;;;;;;;9.70;2.60;;;;;;;4.10;61.04;99363.98;110980;1255;23686;-79
2023/03/27 07:22:13;;;;;;;6.10;2.90;;;;;;;4.14;60.88;99369.39;111050;1255;22703;-79
2023/03/27 07:24:53;;;;;;;6.20;2.70;;;;;;;4.26;60.97;99378.87;110982;1255;22960;-78
2023/03/27 07:27:36;;;;;;;7.10;2.60;;;;;;;4.36;60.15;99380.15;111150;1255;21977;-80
2023/03/27 07:30:17;;;;;;;5.60;3.00;;;;;;;4.33;59.65;99382.48;110721;1261;22723;-81
2023/03/27 07:32:54;;;;;;;5.00;2.40;;;;;;;4.29;59.70;99386.53;110968;1261;23689;-80
2023/03/27 07:35:38;;;;;;;6.70;2.50;;;;;;;4.38;59.95;99392.48;110990;1261;21969;-81
2023/03/27 07:38:46;;;;;;;5.80;2.80;;;;;;;4.54;60.02;99397.73;110691;1261;23502;-79
2023/03/27 07:41:28;;;;;;;5.70;2.50;;;;;;;4.65;59.68;99398.27;110938;1261;22058;-80
2023/03/27 07:44:10;;;;;;;7.40;3.10;;;;;;;4.75;59.75;99399.71;110709;1253;23088;-79
2023/03/27 07:46:57;;;;;;;7.20;3.00;;;;;;;4.90;59.78;99404.44;110803;1264;21957;-80
2023/03/27 07:49:33;;;;;;;7.20;2.50;;;;;;;5.06;59.58;99404.32;110625;1261;22141;-79
2023/03/27 07:52:14;;;;;;;9.80;3.60;;;;;;;5.21;59.25;99411.63;110539;1261;22830;-81
2023/03/27 07:55:05;;;;;;;8.80;3.10;;;;;;;5.30;58.62;99419.29;110976;1261;21987;-80
2023/03/27 07:57:49;;;;;;;4.10;2.50;;;;;;;5.31;58.23;99418.73;110650;1261;23686;-79
2023/03/27 08:00:42;;;;;;;4.30;2.50;;;;;;;5.32;57.84;99420.95;110869;1261;21980;-80
2023/03/27 08:03:31;;;;;;;6.20;3.10;;;;;;;5.30;57.60;99422.21;111369;1255;22009;-79
2023/03/27 08:09:18;;;;;;;7.80;2.40;;;;;;;5.14;56.91;99431.83;111198;1255;21964;-79
2023/03/27 08:12:18;;;;;;;4.40;2.10;;;;;;;4.93;56.65;99438.16;111370;1255;23688;-79
2023/03/27 08:15:08;;;;;;;5.80;2.80;;;;;;;4.80;56.89;99441.12;111248;1255;21956;-79
2023/03/27 08:18:00;;;;;;;5.60;2.60;;;;;;;4.78;57.12;99447.03;111419;1255;23856;-80
2023/03/27 08:21:01;;;;;;;3.40;2.20;;;;;;;4.76;56.99;99450.01;111171;1256;21945;-81
2023/03/27 08:23:42;;;;;;;4.40;2.70;;;;;;;4.75;57.06;99455.23;111458;1256;23110;-80
2023/03/27 08:26:50;;;;;;;6.00;2.10;;;;;;;4.72;57.10;99462.90;111178;1255;23589;-80
2023/03/27 08:29:31;;;;;;;3.30;2.30;;;;;;;4.72;57.26;99466.15;110970;1260;21963;-81
2023/03/27 08:32:11;;;;;;;8.20;3.40;;;;;;;4.77;57.35;99469.11;111036;1260;22058;-81
2023/03/27 08:34:56;;;;;;;3.90;2.40;;;;;;;4.77;57.04;99468.43;110968;1257;21956;-81
2023/03/27 08:37:40;;;;;;;6.70;2.70;;;;;;;4.72;56.98;99468.23;110855;1260;22292;-80
2023/03/27 08:41:02;;;;;;;8.50;2.20;;;;;;;4.72;57.04;99472.20;110639;1260;21988;-83
2023/03/27 08:43:47;;;;;;;6.50;2.00;;;;;;;4.77;57.18;99472.41;110849;1260;21973;-81
2023/03/27 08:46:42;;;;;;;4.60;2.40;;;;;;;4.96;57.45;99471.52;110464;1263;22251;-80
2023/03/27 08:49:21;;;;;;;7.20;2.80;;;;;;;5.16;57.20;99469.38;110566;1254;21971;-79
2023/03/27 08:52:30;;;;;;;4.30;2.40;;;;;;;5.33;56.97;99474.41;110737;1261;21977;-80
2023/03/27 08:55:17;;;;;;;8.40;2.90;;;;;;;5.51;56.58;99480.05;110578;1262;23492;-76
2023/03/27 08:57:56;;;;;;;4.10;2.80;;;;;;;5.60;55.99;99484.08;110704;1263;23641;-80
2023/03/27 09:01:24;;;;;;;8.40;2.60;;;;;;;5.64;55.44;99488.45;110086;1263;23681;-80
2023/03/27 09:04:41;;;;;;;11.10;3.30;;;;;;;5.60;55.24;99489.80;110369;1263;21976;-79
2023/03/27 09:07:46;;;;;;;33.30;4.90;;;;;;;5.59;55.06;99491.05;110558;1263;21974;-78
2023/03/27 09:11:02;;;;;;;5.60;2.90;;;;;;;5.60;54.68;99492.40;110620;1258;22984;-78
2023/03/27 09:14:00;;;;;;;4.50;2.70;;;;;;;5.61;54.73;99493.89;110644;1260;21974;-78
2023/03/27 09:17:26;;;;;;;5.00;1.70;;;;;;;5.64;54.55;99497.08;110464;1265;24335;-77
2023/03/27 09:20:22;;;;;;;5.20;2.60;;;;;;;5.65;54.31;99505.00;109763;1269;23625;-82
2023/03/27 09:23:34;;;;;;;7.10;2.30;;;;;;;5.60;53.77;99512.21;109773;1270;21995;-80
2023/03/27 09:26:36;;;;;;;3.70;1.90;;;;;;;5.35;53.21;99521.09;109834;1269;24372;-78
2023/03/27 09:29:38;;;;;;;4.40;1.80;;;;;;;5.12;52.96;99529.16;109189;1275;22004;-78
2023/03/27 09:32:34;;;;;;;4.90;2.30;;;;;;;4.93;53.11;99532.48;108920;1278;22195;-79
2023/03/27 09:35:27;;;;;;;4.70;3.10;;;;;;;4.92;53.50;99534.56;109022;1277;22012;-79
2023/03/27 09:38:28;;;;;;;3.40;2.00;;;;;;;4.94;53.30;99535.70;109088;1275;22320;-79
2023/03/27 09:41:14;;;;;;;6.10;2.40;;;;;;;4.91;53.21;99538.04;109448;1275;23083;-80
2023/03/27 09:43:59;;;;;;;10.20;4.30;;;;;;;4.90;53.24;99537.21;109477;1274;23601;-79
2023/03/27 09:46:32;;;;;;;6.40;3.30;;;;;;;4.96;53.37;99543.75;109113;1278;23630;-78
2023/03/27 09:49:39;;;;;;;4.10;1.80;;;;;;;5.00;53.04;99550.71;108744;1283;22001;-78
2023/03/27 09:52:39;;;;;;;5.70;3.30;;;;;;;4.98;52.57;99547.84;108618;1286;21999;-78
2023/03/27 09:55:33;;;;;;;5.00;2.60;;;;;;;4.96;52.35;99547.57;109030;1274;21985;-79
2023/03/27 09:58:19;;;;;;;4.40;3.10;;;;;;;4.91;52.15;99545.63;109263;1274;22003;-77
2023/03/27 10:01:15;;;;;;;6.10;2.70;;;;;;;4.90;52.22;99545.98;109252;1278;23060;-79
2023/03/27 10:03:56;;;;;;;6.40;3.00;;;;;;;4.90;52.09;99544.61;108997;1274;21998;-79
2023/03/27 10:07:06;;;;;;;5.90;3.10;;;;;;;4.90;52.04;99545.83;109764;1270;23205;-79
2023/03/27 10:10:16;;;;;;;2.70;2.00;;;;;;;4.95;52.16;99549.13;109845;1270;21995;-77
2023/03/27 10:13:24;;;;;;;4.10;2.40;;;;;;;5.01;51.96;99554.83;110124;1270;21996;-79
2023/03/27 10:16:04;;;;;;;9.90;3.50;;;;;;;5.07;51.95;99560.19;109813;1270;22445;-79
2023/03/27 10:18:52;;;;;;;9.20;5.20;;;;;;;5.24;51.68;99563.69;110128;1264;23800;-79
2023/03/27 10:21:31;;;;;;;6.50;2.90;;;;;;;5.33;51.20;99566.00;110563;1264;21933;-79
2023/03/27 10:24:20;;;;;;;11.40;6.40;;;;;;;5.42;50.94;99565.75;110049;1268;22665;-78
2023/03/27 10:27:31;;;;;;;4.30;2.80;;;;;;;5.51;50.78;99570.33;109575;1272;21977;-80
2023/03/27 10:30:34;;;;;;;4.60;2.40;;;;;;;5.59;50.55;99572.84;110339;1265;22550;-79
2023/03/27 10:33:35;;;;;;;3.70;1.40;;;;;;;5.62;50.03;99564.98;110561;1265;22187;-78
2023/03/27 10:36:16;;;;;;;5.70;2.10;;;;;;;5.59;49.59;99571.64;110432;1265;22084;-79
2023/03/27 10:39:01;;;;;;;2.40;1.50;;;;;;;5.54;49.50;99572.31;109560;1272;23732;-80
2023/03/27 10:42:11;;;;;;;4.40;1.80;;;;;;;5.43;49.12;99580.90;109781;1265;22000;-76
2023/03/27 10:44:47;;;;;;;2.60;1.40;;;;;;;5.36;48.88;99582.99;110370;1261;23086;-76
2023/03/27 10:47:24;;;;;;;6.20;1.70;;;;;;;5.31;48.82;99585.05;110727;1261;21982;-79
2023/03/27 10:50:21;;;;;;;7.50;2.20;;;;;;;5.31;48.73;99585.55;110790;1261;21965;-76
2023/03/27 10:53:21;;;;;;;4.80;1.80;;;;;;;5.32;48.58;99582.77;110589;1261;23696;-77
2023/03/27 10:56:22;;;;;;;6.20;1.70;;;;;;;5.33;48.38;99584.30;110473;1265;21984;-76
2023/03/27 10:59:01;;;;;;;5.10;1.80;;;;;;;5.32;48.04;99585.02;110660;1260;22193;-82
2023/03/27 11:02:03;;;;;;;2.90;1.70;;;;;;;5.52;48.45;99592.02;110480;1265;22014;-78
2023/03/27 11:04:49;;;;;;;9.60;3.30;;;;;;;5.92;48.48;99594.81;110263;1265;23228;-80
2023/03/27 11:07:59;;;;;;;3.40;2.40;;;;;;;6.26;47.85;99600.17;110592;1265;21945;-78
2023/03/27 11:11:17;;;;;;;4.20;2.30;;;;;;;6.35;46.23;99603.68;110101;1265;22367;-81
2023/03/27 11:14:02;;;;;;;2.60;1.80;;;;;;;6.27;45.84;99602.89;110333;1261;21983;-81
2023/03/27 11:16:56;;;;;;;4.60;2.30;;;;;;;6.19;45.91;99605.77;111040;1260;21985;-79
2023/03/27 11:20:32;;;;;;;8.20;1.90;;;;;;;5.97;45.36;99610.04;110478;1260;23027;-80
2023/03/27 11:23:36;;;;;;;23.00;4.10;;;;;;;5.82;45.41;99613.77;110966;1260;22714;-81
2023/03/27 11:26:53;;;;;;;4.40;2.50;;;;;;;5.90;45.90;99622.86;111238;1256;22007;-81
2023/03/27 11:29:45;;;;;;;7.60;2.80;;;;;;;6.00;45.67;99632.41;111409;1255;21968;-78
2023/03/27 11:32:40;;;;;;;2.50;1.60;;;;;;;5.87;45.12;99636.92;111230;1255;21945;-78
2023/03/27 11:35:30;;;;;;;3.70;1.80;;;;;;;5.78;45.22;99634.44;111522;1256;22966;-81
2023/03/27 11:38:24;;;;;;;2.00;1.20;;;;;;;5.77;45.41;99638.59;111332;1255;22025;-79
2023/03/27 11:40:55;;;;;;;6.50;1.90;;;;;;;5.81;45.45;99640.73;111076;1256;24290;-79
2023/03/27 11:43:31;;;;;;;4.00;2.30;;;;;;;5.89;45.32;99642.56;111164;1256;22431;-80
2023/03/27 11:46:51;;;;;;;5.40;1.50;;;;;;;5.86;44.72;99646.10;111253;1255;21968;-81
2023/03/27 11:49:40;;;;;;;13.30;2.30;;;;;;;5.69;44.50;99639.20;111449;1256;23728;-80
2023/03/27 11:53:06;;;;;;;5.50;1.60;;;;;;;5.56;44.55;99641.45;111157;1259;21989;-80
2023/03/27 11:56:10;;;;;;;59.70;5.30;;;;;;;5.60;45.32;99641.17;110477;1264;22698;-80
2023/03/27 11:59:28;;;;;;;5.70;2.00;;;;;;;5.78;45.16;99647.20;110518;1264;23767;-81
2023/03/27 12:02:48;;;;;;;2.80;1.90;;;;;;;5.84;44.72;99648.56;110836;1264;21990;-80
2023/03/27 12:05:39;;;;;;;3.40;2.50;;;;;;;5.77;44.22;99648.62;110416;1263;21971;-80
2023/03/27 12:08:58;;;;;;;3.10;1.70;;;;;;;5.71;44.18;99648.43;109790;1270;21557;-81
2023/03/27 12:11:30;;;;;;;5.60;1.80;;;;;;;5.76;44.61;99647.97;110097;1267;22005;-79
2023/03/27 12:14:24;;;;;;;21.10;3.80;;;;;;;5.91;44.39;99653.04;109734;1271;22992;-82
2023/03/27 12:17:56;;;;;;;2.80;1.20;;;;;;;6.02;43.77;99663.45;109290;1276;22148;-82
2023/03/27 12:21:05;;;;;;;4.90;1.40;;;;;;;5.97;43.28;99666.17;109658;1271;23618;-83
2023/03/27 12:24:30;;;;;;;8.30;2.20;;;;;;;5.89;43.06;99669.85;109682;1272;21998;-83
2023/03/27 12:27:40;;;;;;;4.20;1.80;;;;;;;5.64;42.73;99669.36;109755;1271;21986;-80
2023/03/27 12:31:18;;;;;;;7.10;2.20;;;;;;;5.46;43.08;99673.30;109915;1271;22006;-81
2023/03/27 12:34:57;;;;;;;7.10;1.60;;;;;;;5.43;43.63;99674.77;109778;1265;23064;-80
2023/03/27 12:38:21;;;;;;;2.70;1.50;;;;;;;5.53;43.52;99681.59;109907;1271;21950;-80
2023/03/27 12:41:29;;;;;;;7.20;1.60;;;;;;;5.49;43.24;99688.77;110508;1260;22465;-80
2023/03/27 12:44:28;;;;;;;3.00;1.50;;;;;;;5.37;43.01;99701.31;110993;1260;23625;-80
2023/03/27 12:47:40;;;;;;;5.10;1.40;;;;;;;5.23;42.96;99702.23;111301;1256;23580;-80
2023/03/27 12:50:33;;;;;;;5.30;2.00;;;;;;;5.12;43.17;99707.00;110291;1263;21995;-82
2023/03/27 12:53:21;;;;;;;6.20;2.30;;;;;;;5.05;43.39;99713.89;110603;1262;21976;-80
2023/03/27 12:56:19;;;;;;;4.20;2.10;;;;;;;5.12;43.65;99714.05;110546;1262;23593;-80
2023/03/27 12:59:38;;;;;;;4.20;2.40;;;;;;;5.20;43.91;99711.61;110798;1262;23774;-82
2023/03/27 13:02:17;;;;;;;11.30;3.00;;;;;;;5.30;43.83;99713.44;110823;1262;21963;-80
2023/03/27 13:05:18;;;;;;;2.50;1.50;;;;;;;5.39;43.77;99716.98;110942;1262;21993;-81
2023/03/27 13:09:02;;;;;;;4.90;1.50;;;;;;;5.46;43.18;99720.95;110699;1262;23712;-80
2023/03/27 13:12:20;;;;;;;8.60;1.60;;;;;;;5.33;42.49;99726.46;110113;1269;23076;-81
2023/03/27 13:15:36;;;;;;;3.70;1.70;;;;;;;5.19;42.45;99735.27;110030;1269;21973;-80
2023/03/27 13:19:05;;;;;;;3.00;1.90;;;;;;;5.14;42.57;99744.01;110323;1263;21986;-79
2023/03/27 13:22:18;;;;;;;3.60;1.50;;;;;;;5.07;42.80;99746.27;110755;1263;23634;-80